Time;durP1;ratioP1;P1;durP2;ratioP2;P2;SDS_P1;SDS_P2;PMS_P1;PMS_P2;Temp;Humidity;BMP_temperature;BMP_pressure;BME280_temperature;BME280_humidity;BME280_pressure;Samples;Min_cycle;Max_cycle;Signal;HPM_P1;HPM_P2
2021/01/18 00:02:12;;;;;;;43.63;16.93;;;;;;;-17.59;59.88;100214.41;1639617;87;21661;-61
2021/01/18 00:04:40;;;;;;;38.93;16.73;;;;;;;-17.57;59.61;100214.54;1639537;87;21237;-62
2021/01/18 00:07:08;;;;;;;42.27;16.53;;;;;;;-17.57;59.38;100215.80;1639450;87;21216;-61
2021/01/18 00:09:38;;;;;;;33.65;15.18;;;;;;;-17.53;59.21;100212.72;1637633;87;21300;-63
2021/01/18 00:12:07;;;;;;;39.27;15.17;;;;;;;-17.51;58.92;100222.91;1611046;86;21199;-63
2021/01/18 00:14:35;;;;;;;36.33;15.23;;;;;;;-17.53;58.67;100222.79;1660625;86;21372;-62
2021/01/18 00:17:07;;;;;;;34.80;14.40;;;;;;;-17.53;58.52;100229.47;1660403;85;21208;-62
2021/01/18 00:19:35;;;;;;;41.13;13.43;;;;;;;-17.55;58.55;100234.02;1660647;86;21183;-63
2021/01/18 00:22:03;;;;;;;35.50;13.87;;;;;;;-17.55;58.72;100227.73;1638575;86;21181;-62
2021/01/18 00:24:31;;;;;;;35.47;14.53;;;;;;;-17.54;58.89;100226.09;1663299;86;21241;-62
2021/01/18 00:27:00;;;;;;;34.17;14.53;;;;;;;-17.53;58.95;100233.25;1663195;86;21223;-62
2021/01/18 00:29:28;;;;;;;39.33;14.77;;;;;;;-17.63;58.62;100228.77;1663337;86;21511;-62
2021/01/18 00:31:58;;;;;;;37.10;14.80;;;;;;;-17.72;58.37;100232.23;1679370;84;21188;-62
2021/01/18 00:34:26;;;;;;;34.90;14.58;;;;;;;-17.79;58.44;100234.28;1687400;84;21228;-62
2021/01/18 00:36:54;;;;;;;36.37;14.17;;;;;;;-17.77;58.38;100233.15;1704172;84;21561;-62
2021/01/18 00:39:23;;;;;;;42.03;15.60;;;;;;;-17.81;58.22;100238.34;1704079;84;21214;-61
2021/01/18 00:41:51;;;;;;;33.30;14.13;;;;;;;-17.85;58.25;100236.38;1704058;84;21168;-65
2021/01/18 00:44:19;;;;;;;39.00;14.00;;;;;;;-17.88;58.24;100240.28;1704258;84;21224;-62
2021/01/18 00:46:50;;;;;;;34.87;14.23;;;;;;;-17.90;58.21;100240.54;1710826;82;21204;-63
2021/01/18 00:49:18;;;;;;;35.27;13.73;;;;;;;-17.97;58.10;100239.19;1735009;82;21240;-62
2021/01/18 00:51:47;;;;;;;37.43;13.60;;;;;;;-18.10;58.05;100236.12;1734992;82;22278;-63
2021/01/18 00:54:16;;;;;;;36.90;14.33;;;;;;;-18.16;58.14;100228.09;1693828;84;21626;-63
2021/01/18 00:56:51;;;;;;;34.18;12.70;;;;;;;-18.13;58.20;100234.60;1678368;85;21410;-61
2021/01/18 00:59:20;;;;;;;37.47;13.63;;;;;;;-18.09;59.08;100240.37;1664106;85;21229;-63
2021/01/18 01:01:50;;;;;;;32.58;13.30;;;;;;;-18.10;59.62;100241.14;1679702;84;21188;-63
2021/01/18 01:04:19;;;;;;;36.33;14.50;;;;;;;-18.06;59.36;100241.86;1687018;84;21218;-62
2021/01/18 01:06:47;;;;;;;39.67;15.23;;;;;;;-18.09;58.88;100239.12;1687073;84;21216;-61
2021/01/18 01:09:16;;;;;;;34.27;14.43;;;;;;;-18.11;58.67;100235.60;1687015;84;21149;-62
2021/01/18 01:11:46;;;;;;;30.27;12.53;;;;;;;-18.12;58.69;100237.63;1687202;84;21172;-61
2021/01/18 01:14:14;;;;;;;40.98;16.65;;;;;;;-18.10;58.81;100234.86;1687193;85;21228;-60
2021/01/18 01:16:43;;;;;;;36.80;15.07;;;;;;;-18.17;58.26;100235.50;1686771;85;21460;-61
2021/01/18 01:19:12;;;;;;;36.77;14.60;;;;;;;-18.24;58.31;100226.60;1686933;85;21703;-61
2021/01/18 01:21:40;;;;;;;40.03;15.07;;;;;;;-18.25;58.60;100229.50;1686820;85;21236;-61
2021/01/18 01:24:08;;;;;;;39.63;14.37;;;;;;;-18.28;58.43;100229.66;1686868;84;21264;-62
2021/01/18 01:26:36;;;;;;;35.30;13.73;;;;;;;-18.30;58.24;100232.04;1687035;84;21185;-62
2021/01/18 01:29:04;;;;;;;32.80;13.07;;;;;;;-18.29;58.01;100225.38;1686908;85;21266;-61
2021/01/18 01:31:32;;;;;;;37.90;14.00;;;;;;;-18.27;57.94;100221.34;1686949;85;21204;-61
2021/01/18 01:34:01;;;;;;;33.17;13.27;;;;;;;-18.27;57.74;100226.38;1687095;85;21232;-62
2021/01/18 01:36:29;;;;;;;39.27;13.60;;;;;;;-18.42;57.56;100223.55;1687046;84;21164;-62
2021/01/18 01:40:39;;;;;;;36.60;13.60;;;;;;;-18.46;57.48;100224.92;1753885;79;27122;-61
2021/01/18 01:43:07;;;;;;;38.53;14.03;;;;;;;-18.61;57.42;100229.98;1717410;82;21194;-62
2021/01/18 01:45:35;;;;;;;32.93;13.23;;;;;;;-18.69;57.31;100224.75;1717503;82;22822;-62
2021/01/18 01:48:05;;;;;;;34.80;12.60;;;;;;;-18.79;57.32;100222.27;1717344;83;21127;-62
2021/01/18 01:50:37;;;;;;;30.23;13.43;;;;;;;-18.85;57.42;100221.03;1717632;82;21191;-62
2021/01/18 01:53:20;;;;;;;31.17;13.17;;;;;;;-18.82;57.91;100222.52;1717495;82;21230;-61
2021/01/18 01:55:50;;;;;;;30.60;12.37;;;;;;;-18.77;58.21;100219.13;1691148;83;21190;-63
2021/01/18 01:58:19;;;;;;;35.20;13.97;;;;;;;-18.86;57.76;100219.30;1689488;83;22277;-62
2021/01/18 02:00:47;;;;;;;129.43;37.87;;;;;;;-18.97;57.64;100215.04;1689317;83;21472;-61
2021/01/18 02:06:20;;;;;;;31.40;12.33;;;;;;;-19.10;57.90;100212.28;1887788;76;26835;-60
2021/01/18 02:08:48;;;;;;;33.23;12.57;;;;;;;-19.18;58.00;100215.79;1858535;77;21157;-61
2021/01/18 02:11:16;;;;;;;35.70;13.27;;;;;;;-19.21;58.09;100212.66;1858642;77;21413;-62
2021/01/18 02:14:17;;;;;;;31.40;13.67;;;;;;;-19.21;58.07;100215.55;1854357;77;21673;-62
2021/01/18 02:17:09;;;;;;;29.73;13.37;;;;;;;-19.31;58.00;100211.03;1774537;78;21201;-62
2021/01/18 02:19:58;;;;;;;31.20;12.70;;;;;;;-19.38;58.17;100217.56;1793726;78;21217;-62
2021/01/18 02:23:01;;;;;;;31.97;12.30;;;;;;;-19.31;58.25;100213.55;1801806;78;21201;-61
2021/01/18 02:25:37;;;;;;;28.33;12.63;;;;;;;-19.22;58.30;100213.42;1824823;78;22277;-62
2021/01/18 02:28:17;;;;;;;32.50;11.77;;;;;;;-19.13;58.46;100208.28;1824631;78;21067;-62
2021/01/18 02:31:12;;;;;;;33.65;12.65;;;;;;;-19.14;58.39;100201.11;1825002;78;21629;-62
2021/01/18 02:34:00;;;;;;;34.07;12.73;;;;;;;-19.10;58.21;100224.84;1824852;78;21198;-62
2021/01/18 02:37:38;;;;;;;34.27;13.43;;;;;;;-19.02;58.05;100223.84;1872563;75;26902;-62
2021/01/18 02:40:27;;;;;;;46.97;15.97;;;;;;;-19.11;57.98;100222.71;1771903;78;22397;-62
2021/01/18 02:43:00;;;;;;;34.23;12.67;;;;;;;-19.16;57.93;100229.34;1763927;80;22277;-62
2021/01/18 02:45:28;;;;;;;34.67;12.60;;;;;;;-19.28;58.10;100232.61;1765888;80;21199;-61
2021/01/18 02:47:56;;;;;;;27.43;12.00;;;;;;;-19.39;58.46;100225.86;1723849;82;21211;-61
2021/01/18 02:50:25;;;;;;;35.33;12.90;;;;;;;-19.44;58.36;100226.21;1749923;81;21218;-62
2021/01/18 02:52:54;;;;;;;35.20;12.53;;;;;;;-19.54;58.28;100238.38;1724366;82;21608;-63
2021/01/18 02:55:21;;;;;;;29.67;12.30;;;;;;;-19.58;58.32;100230.09;1741981;81;22176;-65
2021/01/18 02:57:51;;;;;;;31.53;12.27;;;;;;;-19.64;58.69;100227.05;1724898;81;21241;-63
2021/01/18 03:00:24;;;;;;;35.30;12.78;;;;;;;-19.71;58.67;100231.62;1692583;83;21739;-62
2021/01/18 03:03:27;;;;;;;33.20;13.27;;;;;;;-19.81;58.50;100236.59;1725572;82;21440;-63
2021/01/18 03:06:01;;;;;;;29.90;11.67;;;;;;;-20.06;58.55;100216.48;1721189;82;21630;-62
2021/01/18 03:08:40;;;;;;;33.13;12.60;;;;;;;-20.07;58.79;100245.68;1723133;82;21209;-62
2021/01/18 03:11:19;;;;;;;34.05;11.85;;;;;;;-20.11;59.08;100248.28;1719184;82;21341;-63
2021/01/18 03:14:01;;;;;;;32.53;13.07;;;;;;;-20.13;59.27;100246.40;1697653;84;21238;-64
2021/01/18 03:16:37;;;;;;;37.83;13.27;;;;;;;-20.08;59.26;100237.64;1679391;84;21226;-62
2021/01/18 03:19:05;;;;;;;36.90;13.27;;;;;;;-19.96;59.23;100239.08;1665079;84;21221;-63
2021/01/18 03:21:35;;;;;;;34.93;12.73;;;;;;;-19.85;59.22;100243.34;1730444;82;22152;-61
2021/01/18 03:24:05;;;;;;;31.17;12.90;;;;;;;-19.75;59.16;100247.15;1702616;83;21257;-63
2021/01/18 03:26:34;;;;;;;29.92;12.55;;;;;;;-19.59;59.04;100250.92;1682777;84;21283;-62
2021/01/18 03:29:02;;;;;;;39.90;14.10;;;;;;;-19.49;58.82;100238.38;1670814;84;21221;-63
2021/01/18 03:31:29;;;;;;;31.90;13.27;;;;;;;-19.41;58.76;100237.39;1675816;84;21246;-62
2021/01/18 03:33:58;;;;;;;35.33;14.00;;;;;;;-19.33;58.64;100231.36;1732243;82;21230;-61
2021/01/18 03:36:26;;;;;;;35.37;12.87;;;;;;;-19.27;58.62;100236.89;1721830;82;21231;-61
2021/01/18 03:38:54;;;;;;;30.97;12.77;;;;;;;-19.28;58.23;100236.37;1694592;84;23257;-60
2021/01/18 03:41:22;;;;;;;33.07;13.10;;;;;;;-19.38;57.96;100235.52;1733538;82;21278;-61
2021/01/18 03:43:50;;;;;;;35.63;12.57;;;;;;;-19.39;58.10;100244.67;1730886;82;21650;-62
2021/01/18 03:46:18;;;;;;;32.53;13.27;;;;;;;-19.37;58.05;100240.63;1724793;82;21294;-60
2021/01/18 03:48:47;;;;;;;34.50;13.17;;;;;;;-19.32;58.07;100233.48;1696360;84;21195;-61
2021/01/18 03:51:16;;;;;;;39.00;13.97;;;;;;;-19.31;57.96;100232.37;1681944;85;22362;-62
2021/01/18 03:53:44;;;;;;;30.27;11.97;;;;;;;-19.31;57.71;100237.38;1663656;84;21231;-61
2021/01/18 03:56:12;;;;;;;39.87;12.40;;;;;;;-19.38;57.60;100238.02;1659946;84;21187;-60
2021/01/18 03:58:41;;;;;;;32.53;12.80;;;;;;;-19.41;57.58;100242.41;1677949;83;22150;-61
2021/01/18 04:01:09;;;;;;;30.77;11.80;;;;;;;-19.38;57.70;100241.78;1676999;84;21286;-61
2021/01/18 04:03:37;;;;;;;33.97;14.00;;;;;;;-19.35;57.83;100240.38;1671871;84;21518;-60
2021/01/18 04:06:05;;;;;;;32.63;12.97;;;;;;;-19.39;57.88;100238.41;1666685;84;21521;-62
2021/01/18 04:08:34;;;;;;;36.37;13.90;;;;;;;-19.49;57.96;100243.39;1688632;84;21281;-62
2021/01/18 04:11:02;;;;;;;31.07;13.00;;;;;;;-19.58;58.06;100242.62;1687620;84;21229;-62
2021/01/18 04:13:32;;;;;;;32.85;13.05;;;;;;;-19.62;58.32;100255.30;1666364;84;21271;-61
2021/01/18 04:16:02;;;;;;;36.88;13.70;;;;;;;-19.68;58.33;100249.80;1723342;82;21244;-62
2021/01/18 04:18:31;;;;;;;38.47;13.67;;;;;;;-19.75;58.15;100253.42;1735527;82;21214;-62
2021/01/18 04:21:01;;;;;;;38.20;14.28;;;;;;;-19.82;58.06;100251.15;1721318;82;27055;-61
2021/01/18 04:23:29;;;;;;;37.67;13.60;;;;;;;-19.87;58.25;100248.63;1724357;82;21197;-62
2021/01/18 04:25:57;;;;;;;42.10;14.30;;;;;;;-19.81;58.33;100247.88;1744637;81;21187;-61
2021/01/18 04:28:26;;;;;;;39.37;13.80;;;;;;;-19.73;58.38;100246.03;1758309;80;21207;-61
2021/01/18 04:30:54;;;;;;;35.13;13.77;;;;;;;-19.67;58.40;100247.39;1759137;81;22045;-60
2021/01/18 04:33:25;;;;;;;32.90;14.53;;;;;;;-19.63;58.45;100248.89;1753101;81;21198;-60
2021/01/18 04:35:55;;;;;;;33.07;13.43;;;;;;;-19.65;58.36;100240.36;1744863;81;21363;-62
2021/01/18 04:38:24;;;;;;;;;;;;;;;-19.63;58.32;100243.87;1762218;81;21495;-62
2021/01/18 04:40:52;;;;;;;35.10;11.90;;;;;;;-19.62;58.19;100249.03;1751403;81;20290;-59
2021/01/18 04:43:20;;;;;;;34.67;12.67;;;;;;;-19.59;58.13;100245.90;1718934;81;21249;-61
2021/01/18 04:45:51;;;;;;;35.80;13.87;;;;;;;-19.60;57.91;100246.63;1715272;81;21686;-61
2021/01/18 04:48:19;;;;;;;39.90;14.97;;;;;;;-19.69;57.80;100250.18;1731108;81;21250;-61
2021/01/18 04:50:48;;;;;;;42.73;15.03;;;;;;;-19.80;57.83;100244.64;1723453;81;21647;-61
2021/01/18 04:53:17;;;;;;;28.53;12.37;;;;;;;-19.87;57.93;100254.00;1722218;81;21226;-62
2021/01/18 04:56:10;;;;;;;35.13;13.40;;;;;;;-20.00;58.30;100255.86;1735191;81;21766;-60
2021/01/18 04:58:39;;;;;;;30.93;13.07;;;;;;;-20.02;58.66;100258.60;1739366;81;21143;-60
2021/01/18 05:01:07;;;;;;;34.30;13.87;;;;;;;-20.00;58.73;100266.75;1749021;81;21302;-61
2021/01/18 05:03:40;;;;;;;35.33;13.93;;;;;;;-19.97;58.84;100269.89;1677233;82;21576;-60
2021/01/18 05:06:14;;;;;;;;;;;;;;;-19.95;58.78;100265.89;1746948;81;21127;-61
2021/01/18 05:09:05;;;;;;;34.53;13.00;;;;;;;-19.93;58.82;100268.16;1751270;80;20536;-60
2021/01/18 05:11:34;;;;;;;49.17;15.50;;;;;;;-19.91;58.94;100276.69;1740727;81;21143;-61
2021/01/18 05:14:03;;;;;;;46.17;15.57;;;;;;;-19.83;58.94;100269.42;1743221;81;23568;-62
2021/01/18 05:16:37;;;;;;;57.40;16.85;;;;;;;-19.73;58.88;100275.74;1747383;81;21174;-61
2021/01/18 05:19:09;;;;;;;42.53;15.00;;;;;;;-19.67;58.83;100277.84;1749231;81;21170;-62
2021/01/18 05:21:46;;;;;;;43.53;13.93;;;;;;;-19.61;58.84;100283.77;1750788;81;21281;-62
2021/01/18 05:24:15;;;;;;;40.17;15.40;;;;;;;-19.49;58.96;100293.56;1757912;81;21195;-61
2021/01/18 05:26:44;;;;;;;35.63;14.13;;;;;;;-19.40;58.87;100295.59;1753041;81;21263;-63
2021/01/18 05:29:12;;;;;;;32.43;13.27;;;;;;;-19.30;58.85;100295.97;1745700;81;21198;-61
2021/01/18 05:31:41;;;;;;;34.70;13.10;;;;;;;-19.16;58.83;100298.37;1743879;81;21153;-61
2021/01/18 05:34:14;;;;;;;32.30;12.97;;;;;;;-19.15;58.68;100293.87;1744065;81;21193;-62
2021/01/18 05:36:53;;;;;;;37.83;14.27;;;;;;;-19.00;58.65;100305.53;1717747;82;21140;-60
2021/01/18 05:39:24;;;;;;;54.37;22.03;;;;;;;-18.94;58.63;100306.92;1729873;82;21339;-62
2021/01/18 05:41:54;;;;;;;37.93;14.10;;;;;;;-18.84;58.69;100306.03;1746720;80;21186;-61
2021/01/18 05:44:36;;;;;;;36.30;14.57;;;;;;;-18.71;58.82;100313.78;1750110;81;21198;-62
2021/01/18 05:47:06;;;;;;;29.67;12.53;;;;;;;-18.57;58.79;100312.39;1741307;81;21210;-62
2021/01/18 05:49:47;;;;;;;32.40;13.62;;;;;;;-18.44;58.90;100310.11;1726341;81;21651;-61
2021/01/18 05:52:26;;;;;;;40.60;13.47;;;;;;;-18.29;58.93;100321.75;1748275;81;21301;-62
2021/01/18 05:55:30;;;;;;;35.87;13.40;;;;;;;-18.20;58.88;100316.59;1745852;80;21950;-62
2021/01/18 05:58:03;;;;;;;41.37;14.53;;;;;;;-18.12;58.88;100315.58;1732276;80;21250;-63
2021/01/18 06:00:38;;;;;;;43.10;16.80;;;;;;;-18.06;58.93;100319.80;1722273;81;21275;-61
2021/01/18 06:03:09;;;;;;;38.90;15.00;;;;;;;-18.03;58.89;100323.84;1737782;81;21234;-62
2021/01/18 06:05:40;;;;;;;38.50;15.13;;;;;;;-17.99;59.11;100323.33;1727879;80;21373;-81
2021/01/18 06:08:17;;;;;;;45.77;15.17;;;;;;;-17.84;59.35;100329.06;1710333;82;22028;-80
2021/01/18 06:10:51;;;;;;;37.00;15.23;;;;;;;-17.70;59.46;100332.61;1699755;82;21255;-81
2021/01/18 06:13:32;;;;;;;42.60;14.50;;;;;;;-17.50;59.60;100335.39;1697559;83;21137;-80
2021/01/18 06:16:11;;;;;;;42.43;15.73;;;;;;;-17.30;59.62;100336.54;1712534;82;21515;-80
2021/01/18 06:18:41;;;;;;;46.47;16.03;;;;;;;-17.10;60.01;100330.91;1674218;83;21178;-82
2021/01/18 06:21:11;;;;;;;78.65;24.43;;;;;;;-16.93;59.53;100324.20;1689292;83;21167;-80
2021/01/18 06:23:40;;;;;;;741.23;140.60;;;;;;;-16.81;59.36;100321.36;1685154;83;21202;-72
2021/01/18 06:26:09;;;;;;;242.62;49.98;;;;;;;-16.74;59.01;100321.02;1728511;80;21189;-73
2021/01/18 06:28:38;;;;;;;138.17;34.13;;;;;;;-16.73;58.78;100321.89;1739137;81;21254;-74
2021/01/18 06:31:10;;;;;;;66.77;21.93;;;;;;;-16.73;59.28;100321.89;1702268;83;21434;-74
2021/01/18 06:33:50;;;;;;;179.37;48.13;;;;;;;-16.70;59.78;100332.19;1703146;83;22295;-74
2021/01/18 06:36:20;;;;;;;222.73;53.03;;;;;;;-16.71;60.03;100332.96;1717415;81;21632;-73
2021/01/18 06:39:02;;;;;;;241.35;50.40;;;;;;;-16.73;60.47;100330.70;1722424;82;21203;-73
2021/01/18 06:41:32;;;;;;;357.60;74.10;;;;;;;-16.67;61.19;100334.08;1703362;82;21289;-73
2021/01/18 06:44:01;;;;;;;87.70;26.17;;;;;;;-16.61;61.32;100332.86;1686914;83;22392;-74
2021/01/18 06:46:34;;;;;;;67.23;20.97;;;;;;;-16.61;61.36;100333.25;1690125;82;21226;-72
2021/01/18 06:49:03;;;;;;;84.47;23.93;;;;;;;-16.58;61.58;100334.76;1729261;82;21179;-73
2021/01/18 06:51:31;;;;;;;84.87;24.33;;;;;;;-16.58;61.76;100334.76;1719689;81;21182;-73
2021/01/18 06:54:01;;;;;;;94.73;28.33;;;;;;;-16.51;61.95;100334.44;1740713;81;21183;-72
2021/01/18 06:56:39;;;;;;;97.90;29.63;;;;;;;-16.40;62.10;100342.41;1738008;81;21282;-74
2021/01/18 06:59:34;;;;;;;101.20;27.80;;;;;;;-16.22;62.27;100341.97;1735365;80;21162;-72
2021/01/18 07:02:13;;;;;;;88.50;25.83;;;;;;;-16.00;62.25;100342.75;1685156;82;21214;-73
2021/01/18 07:04:46;;;;;;;61.07;19.50;;;;;;;-15.76;62.23;100344.00;1704035;83;21544;-71
2021/01/18 07:07:24;;;;;;;57.20;19.77;;;;;;;-15.46;62.46;100341.44;1705164;82;21653;-73
2021/01/18 07:10:08;;;;;;;46.47;16.00;;;;;;;-15.25;62.02;100336.63;1719573;81;22654;-72
2021/01/18 07:12:36;;;;;;;38.83;15.37;;;;;;;-15.03;61.97;100338.95;1718915;81;21195;-73
2021/01/18 07:15:10;;;;;;;44.97;16.87;;;;;;;-14.87;61.72;100334.94;1737009;81;21152;-74
2021/01/18 07:17:55;;;;;;;53.47;16.60;;;;;;;-14.78;61.47;100349.45;1710972;81;21182;-74
2021/01/18 07:20:27;;;;;;;37.27;14.90;;;;;;;-14.75;61.42;100342.06;1742610;81;21726;-71
2021/01/18 07:23:25;;;;;;;43.43;15.03;;;;;;;-14.62;61.74;100348.44;1727988;80;21200;-66
2021/01/18 07:26:17;;;;;;;45.10;16.97;;;;;;;-14.48;61.89;100350.97;1737784;80;21163;-66
2021/01/18 07:28:50;;;;;;;32.67;12.40;;;;;;;-14.29;62.10;100355.18;1799558;78;21586;-65
2021/01/18 07:31:18;;;;;;;44.60;16.80;;;;;;;-14.06;62.22;100352.00;1777719;78;21204;-64
2021/01/18 07:33:46;;;;;;;36.77;14.97;;;;;;;-13.83;62.16;100356.88;1714395;80;21627;-65
2021/01/18 07:36:28;;;;;;;36.53;15.10;;;;;;;-13.56;62.69;100352.67;1784442;77;21381;-64
2021/01/18 07:38:57;;;;;;;33.37;13.30;;;;;;;-13.21;62.66;100350.53;1781751;78;21182;-66
2021/01/18 07:41:37;;;;;;;37.87;14.37;;;;;;;-12.78;62.35;100351.45;1788587;78;21679;-66
2021/01/18 07:44:30;;;;;;;34.95;14.25;;;;;;;-12.31;62.86;100351.20;1765146;80;21175;-65
2021/01/18 07:47:10;;;;;;;34.20;14.67;;;;;;;-11.48;63.59;100343.10;1855708;76;26745;-65
2021/01/18 07:49:46;;;;;;;31.33;13.30;;;;;;;-11.02;62.62;100334.11;1817371;77;21059;-66
2021/01/18 07:52:21;;;;;;;37.93;16.40;;;;;;;-10.56;61.91;100332.66;1822474;77;21406;-65
2021/01/18 07:54:50;;;;;;;37.67;15.30;;;;;;;-10.14;60.43;100332.63;1813885;77;21645;-66
2021/01/18 07:57:38;;;;;;;46.70;17.97;;;;;;;-9.68;59.11;100328.87;1812888;77;21186;-66
2021/01/18 08:00:27;;;;;;;42.37;16.53;;;;;;;-9.30;57.69;100328.08;1792074;78;21152;-66
2021/01/18 08:03:12;;;;;;;45.50;16.53;;;;;;;-9.03;59.98;100337.80;1821524;77;21163;-67
2021/01/18 08:05:41;;;;;;;58.47;20.00;;;;;;;-8.75;57.29;100331.35;1819546;77;21375;-66
2021/01/18 08:08:14;;;;;;;51.27;19.40;;;;;;;-8.54;56.39;100333.95;1823633;77;21174;-67
2021/01/18 08:11:06;;;;;;;63.50;23.47;;;;;;;-8.45;55.28;100339.45;1821191;77;21732;-67
2021/01/18 08:13:51;;;;;;;51.40;20.37;;;;;;;-8.37;54.63;100344.47;1815160;78;21146;-67
2021/01/18 08:16:39;;;;;;;40.80;16.43;;;;;;;-8.28;53.84;100346.13;1816165;77;21573;-67
2021/01/18 08:19:23;;;;;;;62.63;22.03;;;;;;;-8.12;53.24;100345.09;1825657;77;21201;-65
2021/01/18 08:22:04;;;;;;;46.70;18.23;;;;;;;-7.95;53.79;100334.68;1825036;77;21175;-66
2021/01/18 08:24:38;;;;;;;47.20;17.40;;;;;;;-7.76;52.60;100339.70;1815224;77;21201;-66
2021/01/18 08:27:09;;;;;;;37.07;16.33;;;;;;;-7.51;53.91;100333.87;1816362;77;21602;-65
2021/01/18 08:29:53;;;;;;;42.60;17.83;;;;;;;-7.28;52.15;100339.00;1823220;78;21668;-65
2021/01/18 08:32:30;;;;;;;42.50;16.03;;;;;;;-7.06;51.38;100341.56;1799483;77;21478;-65
2021/01/18 08:34:58;;;;;;;44.23;20.10;;;;;;;-6.96;51.99;100337.64;1812445;77;21198;-64
2021/01/18 08:37:30;;;;;;;40.70;16.90;;;;;;;-6.73;52.00;100343.59;1810194;77;22213;-64
2021/01/18 08:40:15;;;;;;;43.10;19.60;;;;;;;-6.52;50.99;100341.34;1824581;77;21131;-65
2021/01/18 08:42:45;;;;;;;48.07;19.77;;;;;;;-6.29;49.87;100336.59;1811289;77;21174;-66
2021/01/18 08:45:26;;;;;;;48.93;20.10;;;;;;;-6.13;50.11;100340.12;1782182;78;22250;-66
2021/01/18 08:47:58;;;;;;;46.45;19.23;;;;;;;-5.92;47.77;100339.06;1795701;77;21554;-66
2021/01/18 08:50:43;;;;;;;38.25;17.12;;;;;;;-5.61;46.91;100330.67;1753074;80;21648;-66
2021/01/18 08:53:43;;;;;;;37.10;17.07;;;;;;;-5.33;50.36;100327.24;1760790;80;21222;-67
2021/01/18 08:56:30;;;;;;;39.42;18.70;;;;;;;-4.61;48.39;100334.00;1707694;83;21692;-64
2021/01/18 08:58:58;;;;;;;36.28;15.78;;;;;;;-4.37;49.51;100326.06;1690961;84;21358;-66
2021/01/18 09:01:27;;;;;;;41.83;19.70;;;;;;;-4.24;44.11;100325.56;1722551;80;21210;-65
2021/01/18 09:04:05;;;;;;;48.33;20.45;;;;;;;-3.93;43.80;100324.64;1744352;81;21542;-66
2021/01/18 09:06:34;;;;;;;56.15;24.37;;;;;;;-3.39;43.98;100314.30;1757921;80;21150;-66
2021/01/18 09:09:05;;;;;;;76.65;28.73;;;;;;;-2.96;40.64;100313.95;1765764;80;26420;-65
2021/01/18 09:11:35;;;;;;;48.50;21.23;;;;;;;-2.96;40.67;100320.39;1752450;80;22351;-65
2021/01/18 09:14:04;;;;;;;50.20;24.52;;;;;;;-2.64;40.33;100308.57;1741907;81;21183;-66
2021/01/18 09:16:36;;;;;;;39.00;18.10;;;;;;;-2.35;40.38;100302.25;1762668;80;21235;-67
2021/01/18 09:19:05;;;;;;;44.70;19.87;;;;;;;-1.99;39.20;100293.38;1753673;81;21186;-67
2021/01/18 09:21:35;;;;;;;36.40;17.05;;;;;;;-1.68;39.43;100289.98;1751916;81;21227;-67
2021/01/18 09:24:07;;;;;;;58.90;23.10;;;;;;;-1.32;38.88;100295.25;1731571;80;21279;-67
2021/01/18 09:26:36;;;;;;;49.58;23.85;;;;;;;-0.86;37.94;100291.96;1759685;79;21184;-68
2021/01/18 09:29:04;;;;;;;63.08;26.62;;;;;;;-0.92;33.03;100291.87;1766828;79;21206;-66
2021/01/18 09:31:32;;;;;;;51.10;23.55;;;;;;;-1.52;34.04;100290.69;1748190;80;21194;-67
2021/01/18 09:34:11;;;;;;;51.37;22.60;;;;;;;-2.26;34.28;100294.20;1750336;80;21158;-67
2021/01/18 09:36:43;;;;;;;50.05;22.22;;;;;;;-2.50;36.29;100291.64;1752065;81;21620;-67
2021/01/18 09:39:20;;;;;;;41.63;20.32;;;;;;;-1.97;38.79;100285.24;1736506;82;21219;-66
2021/01/18 09:41:52;;;;;;;39.33;17.90;;;;;;;-0.96;38.02;100273.33;1730445;81;21219;-67
2021/01/18 09:44:20;;;;;;;34.90;15.95;;;;;;;-0.60;37.68;100269.40;1736024;81;21222;-66
2021/01/18 09:46:49;;;;;;;38.80;18.98;;;;;;;-0.05;36.71;100267.33;1741476;79;22354;-68
2021/01/18 09:49:25;;;;;;;37.45;20.52;;;;;;;0.36;36.44;100261.59;1763877;76;22273;-72
2021/01/18 09:51:55;;;;;;;39.40;18.75;;;;;;;0.46;34.04;100254.74;1745039;82;21164;-73
2021/01/18 09:54:22;;;;;;;34.10;15.98;;;;;;;0.08;34.17;100263.98;1742630;82;21655;-71
2021/01/18 09:56:54;;;;;;;29.32;13.95;;;;;;;0.10;34.02;100261.42;1732822;82;21161;-72
2021/01/18 09:59:23;;;;;;;39.45;17.73;;;;;;;0.32;35.05;100261.13;1741271;82;21183;-73
2021/01/18 10:01:52;;;;;;;35.10;17.02;;;;;;;0.30;32.00;100262.44;1733064;82;21713;-74
2021/01/18 10:04:24;;;;;;;35.40;15.72;;;;;;;0.03;33.26;100261.80;1749560;81;21642;-74
2021/01/18 10:06:56;;;;;;;29.25;13.55;;;;;;;0.28;39.08;100255.52;1714927;82;21151;-73
2021/01/18 10:09:24;;;;;;;28.10;11.57;;;;;;;0.62;42.72;100252.27;1717280;82;21197;-72
2021/01/18 10:11:52;;;;;;;36.93;15.43;;;;;;;1.18;43.30;100255.09;1729914;82;21191;-74
2021/01/18 10:14:23;;;;;;;32.42;14.78;;;;;;;1.37;36.19;100255.56;1693056;84;21412;-71
2021/01/18 10:17:06;;;;;;;33.95;14.73;;;;;;;0.49;33.00;100255.64;1724940;82;21199;-73
2021/01/18 10:19:36;;;;;;;29.32;12.58;;;;;;;-0.40;35.08;100254.95;1734799;82;21169;-75
2021/01/18 10:22:06;;;;;;;29.23;13.38;;;;;;;-1.01;35.21;100259.45;1734708;81;21244;-73
2021/01/18 10:24:37;;;;;;;24.07;12.17;;;;;;;-1.54;38.07;100259.19;1735169;81;21204;-74
2021/01/18 10:27:10;;;;;;;32.00;14.90;;;;;;;-1.91;38.14;100259.94;1729405;82;21397;-73
2021/01/18 10:29:45;;;;;;;25.48;13.58;;;;;;;-2.43;35.87;100274.57;1734670;82;21169;-72
2021/01/18 10:32:13;;;;;;;27.15;12.80;;;;;;;-3.27;36.41;100271.20;1734692;82;21677;-74
2021/01/18 10:34:43;;;;;;;39.63;15.30;;;;;;;-3.78;40.75;100275.23;1734610;82;21653;-74
2021/01/18 10:39:52;;;;;;;27.13;14.40;;;;;;;-3.85;40.00;100272.93;1822316;76;22111;-75
2021/01/18 10:42:20;;;;;;;35.98;15.98;;;;;;;-4.01;40.60;100272.98;1676913;83;21692;-74
2021/01/18 10:44:53;;;;;;;29.20;13.03;;;;;;;-4.10;41.35;100264.18;1729959;82;22107;-73
2021/01/18 10:47:25;;;;;;;30.08;14.23;;;;;;;-4.36;41.20;100259.69;1729480;82;21685;-73
2021/01/18 10:49:58;;;;;;;29.20;13.93;;;;;;;-4.70;41.44;100255.81;1731730;80;21688;-73
2021/01/18 10:52:39;;;;;;;31.82;15.25;;;;;;;-5.11;43.20;100264.56;1738066;81;21168;-74
2021/01/18 10:55:10;;;;;;;32.03;15.28;;;;;;;-5.43;42.81;100266.17;1701330;82;21196;-76
2021/01/18 10:57:41;;;;;;;35.60;17.48;;;;;;;-6.00;41.86;100274.75;1715006;82;21599;-77
2021/01/18 11:00:13;;;;;;;30.08;14.40;;;;;;;-6.66;43.16;100276.39;1740364;81;21802;-78
2021/01/18 11:02:47;;;;;;;34.25;14.65;;;;;;;-7.16;45.67;100283.14;1720835;81;21224;-75
2021/01/18 11:05:16;;;;;;;24.60;11.73;;;;;;;-7.52;45.56;100285.20;1721627;82;21241;-73
2021/01/18 11:07:46;;;;;;;31.33;13.70;;;;;;;-7.92;46.36;100288.77;1781582;80;21154;-72
2021/01/18 11:10:24;;;;;;;58.40;21.50;;;;;;;-8.17;47.30;100285.64;1748753;82;22246;-76
2021/01/18 11:13:02;;;;;;;36.70;16.13;;;;;;;-8.45;47.62;100293.48;1730258;82;21169;-76
2021/01/18 11:15:38;;;;;;;40.97;16.80;;;;;;;-8.60;48.42;100294.10;1748804;82;21171;-76
2021/01/18 11:18:08;;;;;;;31.60;13.00;;;;;;;-8.70;48.57;100300.09;1730911;81;21684;-75
2021/01/18 11:20:36;;;;;;;36.10;15.00;;;;;;;-8.75;49.86;100290.09;1725425;81;21198;-75
2021/01/18 11:25:41;;;;;;;39.23;14.50;;;;;;;-9.10;49.84;100283.06;1873480;76;27141;-72
2021/01/18 11:28:14;;;;;;;33.50;14.40;;;;;;;-9.35;50.98;100290.02;1791133;79;21072;-75
2021/01/18 11:30:43;;;;;;;35.33;14.23;;;;;;;-9.51;51.23;100297.37;1802108;79;21374;-74
2021/01/18 11:33:12;;;;;;;40.97;15.03;;;;;;;-9.56;51.70;100303.94;1772960;79;21195;-74
2021/01/18 11:35:43;;;;;;;31.63;13.07;;;;;;;-9.66;51.86;100294.13;1816320;77;21139;-74
2021/01/18 11:38:13;;;;;;;43.80;16.20;;;;;;;-9.74;52.55;100292.89;1819783;77;21164;-73
2021/01/18 11:40:41;;;;;;;38.87;14.47;;;;;;;-9.81;52.63;100293.41;1822434;77;21111;-75
2021/01/18 11:43:10;;;;;;;44.00;16.20;;;;;;;-9.80;52.89;100293.86;1837029;77;21185;-75